Time;durP1;ratioP1;P1;durP2;ratioP2;P2;SDS_P1;SDS_P2;PMS_P1;PMS_P2;Temp;Humidity;BMP_temperature;BMP_pressure;BME280_temperature;BME280_humidity;BME280_pressure;Samples;Min_cycle;Max_cycle;Signal;HPM_P1;HPM_P2
2023/04/26 00:02:04;;;;;;;12.55;2.33;;;3.00;99.90;;;;;;4963253;28;20548;-64
2023/04/26 00:04:30;;;;;;;13.13;2.70;;;2.90;99.90;;;;;;4957845;28;20289;-64
2023/04/26 00:06:56;;;;;;;13.63;2.50;;;2.90;99.90;;;;;;4960304;28;20386;-64
2023/04/26 00:09:22;;;;;;;12.77;2.47;;;2.80;99.90;;;;;;4962948;28;20473;-64
2023/04/26 00:11:48;;;;;;;11.68;2.10;;;2.80;99.90;;;;;;4958119;28;20042;-64
2023/04/26 00:14:13;;;;;;;8.25;2.00;;;2.70;99.90;;;;;;4946899;28;20953;-64
2023/04/26 00:16:39;;;;;;;13.05;2.13;;;2.70;99.90;;;;;;4958505;28;20053;-64
2023/04/26 00:19:05;;;;;;;15.30;2.33;;;2.70;99.90;;;;;;4959523;28;20546;-63
2023/04/26 00:21:30;;;;;;;13.10;1.70;;;2.90;1.00;;;;;;4955870;28;20113;-64
2023/04/26 00:23:56;;;;;;;13.88;2.28;;;2.80;1.00;;;;;;4953963;28;20050;-64
2023/04/26 00:26:22;;;;;;;13.55;2.53;;;2.80;1.00;;;;;;4940708;28;20108;-64
2023/04/26 00:28:48;;;;;;;7.75;2.60;;;2.80;1.00;;;;;;4960355;28;20474;-64
2023/04/26 00:31:17;;;;;;;14.73;2.60;;;2.70;1.00;;;;;;4960566;28;20061;-64
2023/04/26 00:33:43;;;;;;;8.55;1.70;;;2.70;1.00;;;;;;4957126;28;20038;-63
2023/04/26 00:36:09;;;;;;;10.45;1.95;;;2.60;1.00;;;;;;4940075;28;20101;-64
2023/04/26 00:38:35;;;;;;;8.52;2.15;;;2.60;1.00;;;;;;4959741;28;20551;-64
2023/04/26 00:41:01;;;;;;;8.95;1.88;;;2.70;1.00;;;;;;4957610;28;20260;-64
2023/04/26 00:43:27;;;;;;;14.70;2.08;;;2.80;1.00;;;;;;4941822;28;20042;-64
2023/04/26 00:45:53;;;;;;;10.68;1.95;;;2.90;1.00;;;;;;4958865;28;20077;-64
2023/04/26 00:48:19;;;;;;;16.50;2.58;;;3.00;1.00;;;;;;4958525;28;20654;-63
2023/04/26 00:50:49;;;;;;;9.05;1.90;;;3.20;1.00;;;;;;4938063;28;20429;-64
2023/04/26 00:53:16;;;;;;;13.85;1.92;;;3.20;1.00;;;;;;4966782;28;20275;-64
2023/04/26 00:55:43;;;;;;;10.18;2.08;;;3.30;1.00;;;;;;4952657;28;20402;-64
2023/04/26 00:58:09;;;;;;;15.00;2.22;;;3.40;1.00;;;;;;4956661;28;20271;-64
2023/04/26 01:00:35;;;;;;;9.95;2.13;;;3.40;1.00;;;;;;4955518;28;20102;-63
2023/04/26 01:03:01;;;;;;;10.60;2.15;;;3.50;1.00;;;;;;4957025;28;20473;-63
2023/04/26 01:05:27;;;;;;;10.05;1.92;;;3.50;1.00;;;;;;4960428;28;20166;-64
2023/04/26 01:07:53;;;;;;;10.88;2.00;;;3.60;1.00;;;;;;4960974;28;20046;-64
2023/04/26 01:10:18;;;;;;;13.32;2.35;;;3.50;1.00;;;;;;4952967;28;20641;-63
2023/04/26 01:12:44;;;;;;;9.38;1.90;;;3.50;1.00;;;;;;4961033;28;20607;-64
2023/04/26 01:15:10;;;;;;;9.60;2.05;;;3.40;1.00;;;;;;4938685;28;20110;-64
2023/04/26 01:17:37;;;;;;;9.45;1.85;;;3.40;1.00;;;;;;4954193;28;20034;-64
2023/04/26 01:20:04;;;;;;;8.02;1.55;;;3.30;1.00;;;;;;4955176;28;20138;-64
2023/04/26 01:22:33;;;;;;;11.10;2.03;;;3.30;1.00;;;;;;4951757;28;20050;-64
2023/04/26 01:25:02;;;;;;;9.85;1.75;;;3.30;1.00;;;;;;4955347;28;20311;-64
2023/04/26 01:27:28;;;;;;;8.57;1.40;;;3.20;1.00;;;;;;4953460;28;20147;-63
2023/04/26 01:29:54;;;;;;;9.95;1.65;;;3.20;1.00;;;;;;4941520;28;20446;-64
2023/04/26 01:32:20;;;;;;;9.90;1.70;;;3.20;1.00;;;;;;4958484;28;20043;-63
2023/04/26 01:34:45;;;;;;;7.75;1.63;;;3.20;1.00;;;;;;4943692;28;20042;-64
2023/04/26 01:37:11;;;;;;;7.00;1.45;;;3.20;1.00;;;;;;4941492;28;20098;-65
2023/04/26 01:39:37;;;;;;;6.03;1.10;;;3.20;1.00;;;;;;4955070;28;20038;-65
2023/04/26 01:42:03;;;;;;;11.43;1.40;;;3.20;1.00;;;;;;4957424;28;20431;-65
2023/04/26 01:44:29;;;;;;;9.05;1.77;;;3.10;1.00;;;;;;4950645;28;20079;-65
2023/04/26 01:46:55;;;;;;;7.90;1.17;;;3.00;1.00;;;;;;4956020;28;20186;-65
2023/04/26 01:49:21;;;;;;;8.95;1.45;;;3.10;1.00;;;;;;4951469;28;20515;-64
2023/04/26 01:51:47;;;;;;;4.03;1.02;;;3.10;1.00;;;;;;4943383;28;20444;-64
2023/04/26 01:54:12;;;;;;;6.78;1.60;;;3.10;1.00;;;;;;4956965;28;20043;-65
2023/04/26 01:56:38;;;;;;;7.60;1.45;;;3.30;1.00;;;;;;4960221;28;20461;-65
2023/04/26 01:59:04;;;;;;;6.88;1.40;;;3.30;1.00;;;;;;4937663;28;20049;-65
2023/04/26 02:01:30;;;;;;;6.35;1.50;;;3.30;1.00;;;;;;4957711;28;20038;-65
2023/04/26 02:03:55;;;;;;;10.73;1.35;;;3.30;1.00;;;;;;4957148;28;20055;-65
2023/04/26 02:06:21;;;;;;;9.50;1.42;;;3.30;1.00;;;;;;4955532;28;20061;-65
2023/04/26 02:08:48;;;;;;;7.93;1.08;;;3.20;1.00;;;;;;4956952;28;20409;-65
2023/04/26 02:11:13;;;;;;;10.15;1.45;;;3.20;1.00;;;;;;4956420;28;20043;-65
2023/04/26 02:13:39;;;;;;;10.02;1.25;;;3.10;1.00;;;;;;4951882;28;20043;-64
2023/04/26 02:16:06;;;;;;;9.57;2.13;;;3.00;1.00;;;;;;4950499;28;20727;-65
2023/04/26 02:18:32;;;;;;;10.57;1.50;;;2.90;1.00;;;;;;4939601;28;20042;-65
2023/04/26 02:20:58;;;;;;;9.73;1.88;;;2.90;1.00;;;;;;4951392;28;20062;-65
2023/04/26 02:23:23;;;;;;;12.70;1.85;;;2.80;1.00;;;;;;4937524;28;20065;-65
2023/04/26 02:25:49;;;;;;;9.38;1.63;;;2.80;1.00;;;;;;4943783;28;20051;-65
2023/04/26 02:28:15;;;;;;;6.55;1.50;;;2.80;1.00;;;;;;4941515;28;20058;-65
2023/04/26 02:30:42;;;;;;;7.78;1.42;;;2.80;1.00;;;;;;4937877;28;20050;-65
2023/04/26 02:33:08;;;;;;;7.40;1.52;;;2.80;1.00;;;;;;4925817;28;20073;-64
2023/04/26 02:35:35;;;;;;;11.32;1.63;;;2.90;1.00;;;;;;4943290;28;20911;-64
2023/04/26 02:38:01;;;;;;;9.40;1.20;;;2.90;1.00;;;;;;4937165;28;20047;-65
2023/04/26 02:40:27;;;;;;;6.05;1.80;;;3.00;1.00;;;;;;4942506;28;20031;-65
2023/04/26 02:42:52;;;;;;;5.88;1.40;;;2.90;1.00;;;;;;4927337;28;20697;-65
2023/04/26 02:45:18;;;;;;;5.57;1.65;;;2.80;1.00;;;;;;4941044;28;20200;-65
2023/04/26 02:47:43;;;;;;;8.27;1.38;;;2.70;1.00;;;;;;4942226;28;20039;-65
2023/04/26 02:50:09;;;;;;;13.27;2.10;;;2.50;1.00;;;;;;4940522;28;20528;-64
2023/04/26 02:52:35;;;;;;;9.82;1.95;;;2.50;1.00;;;;;;4936525;28;20047;-65
2023/04/26 02:55:03;;;;;;;8.60;1.80;;;2.40;1.00;;;;;;4940788;28;20633;-64
2023/04/26 02:57:29;;;;;;;8.93;1.73;;;2.40;1.00;;;;;;4940417;28;20043;-64
2023/04/26 02:59:55;;;;;;;9.13;1.98;;;2.30;1.00;;;;;;4941311;28;20146;-64
2023/04/26 03:02:21;;;;;;;9.38;1.85;;;2.20;1.00;;;;;;4944142;28;20041;-66
2023/04/26 03:04:46;;;;;;;10.30;1.85;;;2.20;1.00;;;;;;4934749;28;20129;-65
2023/04/26 03:07:12;;;;;;;8.13;2.10;;;2.10;1.00;;;;;;4937135;28;20122;-64
2023/04/26 03:09:38;;;;;;;13.32;2.55;;;2.10;1.00;;;;;;4940027;28;20038;-64
2023/04/26 03:12:08;;;;;;;8.00;2.33;;;2.00;1.00;;;;;;4927347;28;20065;-65
2023/04/26 03:14:34;;;;;;;11.73;2.85;;;2.10;1.00;;;;;;4935631;28;20046;-65
2023/04/26 03:17:00;;;;;;;10.68;2.63;;;2.10;1.00;;;;;;4934581;28;20050;-65
2023/04/26 03:19:27;;;;;;;9.02;2.53;;;2.10;1.00;;;;;;4940607;28;20059;-64
2023/04/26 03:21:53;;;;;;;8.85;2.38;;;2.10;1.00;;;;;;4951475;28;20126;-64
2023/04/26 03:24:19;;;;;;;6.55;2.45;;;2.10;1.00;;;;;;4960763;28;20050;-64
2023/04/26 03:26:44;;;;;;;8.07;2.05;;;2.10;1.00;;;;;;4954486;28;20281;-64
2023/04/26 03:29:11;;;;;;;14.07;2.78;;;2.10;1.00;;;;;;4954856;28;20185;-64
2023/04/26 03:31:37;;;;;;;9.63;2.15;;;2.20;1.00;;;;;;4936247;28;20696;-64
2023/04/26 03:34:03;;;;;;;7.80;2.40;;;2.20;1.00;;;;;;4956420;28;20057;-65
2023/04/26 03:36:30;;;;;;;9.68;1.80;;;2.20;1.00;;;;;;4956215;28;20093;-64
2023/04/26 03:38:57;;;;;;;10.32;2.00;;;2.30;6.60;;;;;;4945738;28;20460;-64
2023/04/26 03:41:23;;;;;;;5.53;2.30;;;2.40;28.50;;;;;;4957003;28;20049;-64
2023/04/26 03:43:49;;;;;;;4.43;2.03;;;2.40;37.90;;;;;;4959185;28;20101;-65
2023/04/26 03:46:15;;;;;;;9.52;1.90;;;2.50;21.60;;;;;;4957052;28;20062;-64
2023/04/26 03:48:40;;;;;;;9.38;2.35;;;2.50;19.00;;;;;;4958276;28;20568;-64
2023/04/26 03:51:06;;;;;;;7.38;2.15;;;2.60;50.60;;;;;;4960721;28;20042;-64
2023/04/26 03:53:32;;;;;;;10.57;2.30;;;2.70;74.90;;;;;;4964785;28;20223;-64
2023/04/26 03:55:58;;;;;;;5.07;1.80;;;2.90;96.20;;;;;;4940466;28;20043;-65
2023/04/26 03:58:27;;;;;;;4.30;1.63;;;2.90;99.90;;;;;;4958744;28;20379;-65
2023/04/26 04:00:59;;;;;;;9.07;1.65;;;3.00;99.90;;;;;;4959750;28;20046;-64
2023/04/26 04:03:25;;;;;;;10.10;1.90;;;3.00;99.90;;;;;;4953662;28;20042;-64
2023/04/26 04:05:51;;;;;;;8.95;1.40;;;3.10;99.90;;;;;;4959302;28;20049;-65
2023/04/26 04:08:16;;;;;;;6.10;1.48;;;3.10;99.90;;;;;;4964095;28;20590;-64
2023/04/26 04:10:43;;;;;;;7.32;1.48;;;3.20;99.90;;;;;;4959611;28;20370;-64
2023/04/26 04:13:09;;;;;;;8.18;1.50;;;3.20;99.90;;;;;;4958830;28;20047;-64
2023/04/26 04:15:34;;;;;;;7.50;1.30;;;3.30;99.90;;;;;;4953715;28;20068;-64
2023/04/26 04:18:00;;;;;;;9.18;1.52;;;3.40;99.90;;;;;;4957419;28;20035;-64
2023/04/26 04:20:26;;;;;;;8.65;1.65;;;3.40;99.90;;;;;;4959249;28;20049;-64
2023/04/26 04:22:52;;;;;;;9.40;1.83;;;3.40;99.90;;;;;;4962847;28;20138;-64
2023/04/26 04:25:20;;;;;;;7.38;1.40;;;3.30;97.10;;;;;;4963867;28;21577;-65
2023/04/26 04:27:45;;;;;;;5.35;1.52;;;3.30;87.60;;;;;;4977566;28;20152;-65
2023/04/26 04:30:11;;;;;;;9.60;1.83;;;3.30;69.40;;;;;;4954282;28;20099;-64
2023/04/26 04:32:38;;;;;;;10.80;1.75;;;3.20;48.40;;;;;;4979031;28;20045;-64
2023/04/26 04:35:04;;;;;;;9.63;1.73;;;3.10;46.50;;;;;;4960572;28;20046;-64
2023/04/26 04:37:33;;;;;;;8.73;2.17;;;3.00;34.40;;;;;;4957193;28;20073;-65
2023/04/26 04:39:59;;;;;;;7.50;1.75;;;3.00;36.20;;;;;;4944762;28;20113;-64
2023/04/26 04:42:27;;;;;;;9.30;1.98;;;3.00;29.10;;;;;;4979059;28;20045;-65
2023/04/26 04:44:53;;;;;;;5.72;1.45;;;3.00;40.90;;;;;;4960349;28;20598;-66
2023/04/26 04:47:19;;;;;;;9.25;1.65;;;3.10;31.60;;;;;;4962132;28;20046;-65
2023/04/26 04:49:44;;;;;;;8.93;2.17;;;3.20;48.80;;;;;;4977968;28;20196;-64
2023/04/26 04:52:10;;;;;;;9.00;1.92;;;3.20;41.20;;;;;;4962214;28;20510;-64
2023/04/26 04:54:36;;;;;;;8.43;2.10;;;3.30;66.10;;;;;;4957592;28;20041;-64
2023/04/26 04:57:02;;;;;;;6.90;1.92;;;3.40;85.10;;;;;;4961605;28;20049;-65
2023/04/26 04:59:28;;;;;;;6.30;2.28;;;3.40;76.10;;;;;;4958844;28;20209;-64
2023/04/26 05:01:54;;;;;;;6.07;2.00;;;3.30;84.60;;;;;;4963219;28;20042;-64
2023/04/26 05:04:20;;;;;;;6.32;2.15;;;3.30;83.90;;;;;;4943802;28;20169;-65
2023/04/26 05:06:46;;;;;;;7.43;2.30;;;3.30;91.00;;;;;;4948119;28;20105;-65
2023/04/26 05:09:12;;;;;;;8.30;2.20;;;3.30;97.00;;;;;;4961228;28;20042;-65
2023/04/26 05:11:38;;;;;;;8.10;2.20;;;3.30;99.90;;;;;;4959260;28;20034;-65
2023/04/26 05:14:03;;;;;;;8.00;2.83;;;3.40;99.90;;;;;;4955366;28;20222;-64
2023/04/26 05:16:29;;;;;;;6.25;1.90;;;3.50;99.90;;;;;;4960026;28;20488;-65
2023/04/26 05:18:55;;;;;;;5.38;2.05;;;3.40;99.90;;;;;;4941480;28;20228;-65
2023/04/26 05:21:22;;;;;;;8.63;2.10;;;3.50;99.90;;;;;;4944351;28;20054;-64
2023/04/26 05:23:48;;;;;;;7.53;1.92;;;3.50;99.90;;;;;;4974115;28;20050;-64
2023/04/26 05:26:15;;;;;;;8.00;1.98;;;3.70;99.90;;;;;;4960826;28;20982;-65
2023/04/26 05:28:41;;;;;;;5.60;1.83;;;3.90;99.90;;;;;;4963269;28;20074;-64
2023/04/26 05:31:08;;;;;;;6.80;2.10;;;4.10;99.90;;;;;;4956497;28;20133;-65
2023/04/26 05:33:34;;;;;;;6.38;1.77;;;4.30;99.90;;;;;;4941111;28;20081;-65
2023/04/26 05:36:00;;;;;;;4.30;1.63;;;4.60;99.90;;;;;;4960601;28;20165;-64
2023/04/26 05:38:26;;;;;;;5.38;1.60;;;4.90;62.80;;;;;;4960679;28;20288;-64
2023/04/26 05:40:51;;;;;;;5.97;1.63;;;5.10;1.00;;;;;;4962112;28;20046;-64
2023/04/26 05:43:18;;;;;;;8.40;1.67;;;5.30;1.00;;;;;;4910647;28;20060;-64
2023/04/26 05:45:53;;;;;;;8.65;1.50;;;5.50;1.00;;;;;;4942736;28;20084;-64
2023/04/26 05:48:21;;;;;;;5.20;1.10;;;5.80;1.00;;;;;;4974194;28;20624;-66
2023/04/26 05:50:47;;;;;;;8.00;1.33;;;6.00;1.00;;;;;;4942967;28;20041;-64
2023/04/26 05:53:13;;;;;;;7.07;1.08;;;6.20;1.00;;;;;;4939632;28;20045;-64
2023/04/26 05:55:40;;;;;;;7.30;1.05;;;6.40;1.00;;;;;;4941168;28;20047;-65
2023/04/26 05:58:06;;;;;;;6.75;1.20;;;6.60;99.90;;;;;;4952745;28;20264;-64
2023/04/26 06:00:32;;;;;;;6.35;1.30;;;6.70;99.90;;;;;;4949449;28;20230;-65
2023/04/26 06:02:58;;;;;;;7.50;1.05;;;6.90;99.90;;;;;;4944981;28;20044;-64
2023/04/26 06:05:24;;;;;;;3.03;0.80;;;7.10;99.90;;;;;;4957709;28;20050;-65
2023/04/26 06:07:50;;;;;;;6.28;1.05;;;7.20;99.90;;;;;;4962187;28;20136;-65
2023/04/26 06:10:16;;;;;;;5.55;1.05;;;7.20;99.90;;;;;;4964232;28;20044;-65
2023/04/26 06:12:42;;;;;;;5.75;1.40;;;7.40;99.90;;;;;;4943638;28;20030;-65
2023/04/26 06:15:09;;;;;;;4.03;0.77;;;7.50;99.90;;;;;;4947276;28;20073;-65
2023/04/26 06:17:35;;;;;;;7.03;1.05;;;7.80;99.90;;;;;;4960746;28;20286;-65
2023/04/26 06:20:01;;;;;;;2.92;0.60;;;8.00;99.90;;;;;;4961438;28;20062;-65
2023/04/26 06:22:27;;;;;;;4.50;0.80;;;8.00;99.90;;;;;;4961869;28;20448;-65
2023/04/26 06:24:53;;;;;;;6.68;0.70;;;7.80;84.40;;;;;;4962295;28;20042;-65
2023/04/26 06:27:18;;;;;;;5.03;0.55;;;7.70;65.00;;;;;;4945526;28;20078;-65
2023/04/26 06:29:44;;;;;;;4.30;0.63;;;7.50;65.80;;;;;;4963846;28;20112;-65
2023/04/26 06:32:10;;;;;;;5.38;0.70;;;7.20;99.90;;;;;;4970153;28;20480;-65
2023/04/26 06:34:36;;;;;;;5.03;1.15;;;6.90;99.90;;;;;;4959861;28;20038;-65
2023/04/26 06:37:06;;;;;;;7.28;1.00;;;6.60;99.90;;;;;;4963296;28;20038;-66
2023/04/26 06:39:31;;;;;;;7.65;1.08;;;6.20;99.90;;;;;;4946682;28;20038;-65
2023/04/26 06:41:57;;;;;;;4.45;0.70;;;6.00;99.90;;;;;;4945560;28;20075;-65
2023/04/26 06:44:23;;;;;;;5.05;0.77;;;5.80;99.90;;;;;;4957348;28;20347;-65
2023/04/26 06:46:52;;;;;;;7.25;0.95;;;5.80;99.90;;;;;;4959815;28;20104;-65
2023/04/26 06:49:18;;;;;;;4.10;0.68;;;5.90;99.90;;;;;;4977075;28;20542;-65
2023/04/26 06:51:43;;;;;;;5.82;1.17;;;6.30;99.90;;;;;;4958259;28;20050;-66
2023/04/26 06:54:11;;;;;;;5.90;0.90;;;6.80;99.90;;;;;;4957980;28;20197;-65
2023/04/26 06:56:36;;;;;;;7.93;1.30;;;7.10;99.90;;;;;;4939551;28;20038;-63
2023/04/26 06:59:04;;;;;;;4.78;1.10;;;7.50;99.90;;;;;;4945549;28;20042;-64
2023/04/26 07:01:34;;;;;;;6.85;0.90;;;7.70;99.90;;;;;;4963941;28;20042;-66
2023/04/26 07:04:04;;;;;;;6.25;0.90;;;8.10;99.90;;;;;;4961160;28;20205;-66
2023/04/26 07:06:30;;;;;;;8.52;0.80;;;8.50;99.90;;;;;;4959335;28;20727;-64
2023/04/26 07:08:57;;;;;;;6.15;0.90;;;8.80;99.90;;;;;;4961127;28;20049;-64
2023/04/26 07:11:23;;;;;;;5.28;0.70;;;9.10;99.90;;;;;;4955978;28;20039;-64
2023/04/26 07:13:49;;;;;;;12.27;1.02;;;9.10;18.10;;;;;;4957119;28;20327;-63
2023/04/26 07:16:15;;;;;;;7.30;0.80;;;9.00;57.60;;;;;;4940450;28;20049;-66
2023/04/26 07:18:41;;;;;;;6.68;0.80;;;8.80;90.20;;;;;;4956234;28;20042;-66
2023/04/26 07:21:07;;;;;;;8.48;0.75;;;8.70;89.90;;;;;;4976081;28;20053;-66
2023/04/26 07:23:33;;;;;;;6.07;0.60;;;8.50;40.90;;;;;;4959847;28;20050;-65
2023/04/26 07:26:00;;;;;;;6.45;1.27;;;8.50;1.00;;;;;;4974399;28;20331;-65
2023/04/26 07:28:26;;;;;;;6.13;0.88;;;8.40;1.00;;;;;;4911084;28;20288;-63
2023/04/26 07:30:52;;;;;;;7.50;0.90;;;8.30;49.80;;;;;;4965602;28;20096;-64
2023/04/26 07:33:18;;;;;;;5.88;1.00;;;8.10;99.90;;;;;;4941337;28;20049;-64
2023/04/26 07:35:44;;;;;;;5.35;1.17;;;8.00;99.90;;;;;;4957439;28;20181;-64
2023/04/26 07:38:13;;;;;;;6.70;1.15;;;8.00;99.90;;;;;;4961494;28;20042;-64
2023/04/26 07:40:39;;;;;;;5.53;0.80;;;8.00;99.90;;;;;;4943525;28;20047;-64
2023/04/26 07:43:04;;;;;;;5.05;0.93;;;8.20;99.90;;;;;;4941698;28;20057;-64
2023/04/26 07:45:31;;;;;;;7.45;0.82;;;8.70;99.90;;;;;;4957054;28;20500;-64
2023/04/26 07:47:57;;;;;;;5.88;0.82;;;9.40;99.90;;;;;;4975005;28;20115;-64
2023/04/26 07:50:23;;;;;;;9.85;0.95;;;9.90;99.90;;;;;;4950334;28;20046;-64
2023/04/26 07:52:50;;;;;;;5.53;0.75;;;10.40;8.20;;;;;;4943815;28;20042;-64
2023/04/26 07:55:15;;;;;;;5.40;0.60;;;10.30;99.90;;;;;;4957439;28;20054;-64
2023/04/26 07:57:41;;;;;;;6.07;0.40;;;9.70;99.90;;;;;;4956641;28;20045;-64
2023/04/26 08:00:10;;;;;;;5.13;0.57;;;9.70;99.90;;;;;;4964265;28;20511;-64
2023/04/26 08:02:36;;;;;;;5.88;0.40;;;9.90;99.90;;;;;;4989071;28;20253;-64
2023/04/26 08:05:02;;;;;;;8.15;0.60;;;9.90;99.90;;;;;;4959653;28;20449;-64
2023/04/26 08:07:28;;;;;;;8.68;0.70;;;10.00;99.90;;;;;;4956441;28;20045;-64
2023/04/26 08:09:53;;;;;;;8.10;0.60;;;9.50;99.90;;;;;;4939906;28;20053;-64
2023/04/26 08:12:19;;;;;;;5.82;0.55;;;9.70;99.90;;;;;;4941521;28;20042;-64
2023/04/26 08:14:45;;;;;;;6.10;0.73;;;9.90;1.00;;;;;;4955896;28;20352;-64
2023/04/26 08:17:11;;;;;;;6.50;0.75;;;9.30;99.90;;;;;;4956286;28;20517;-65
2023/04/26 08:19:36;;;;;;;5.55;0.47;;;9.00;1.00;;;;;;4957280;28;20057;-63
2023/04/26 08:22:04;;;;;;;6.10;0.52;;;8.70;1.00;;;;;;4941274;28;20556;-64
2023/04/26 08:24:30;;;;;;;7.63;0.80;;;8.80;1.00;;;;;;4982179;28;20591;-64
2023/04/26 08:26:57;;;;;;;8.82;0.75;;;8.60;1.00;;;;;;4956915;28;20260;-64
2023/04/26 08:29:25;;;;;;;5.97;0.77;;;8.30;1.00;;;;;;4973505;28;20058;-64
2023/04/26 08:31:51;;;;;;;7.57;0.47;;;8.40;1.00;;;;;;4985383;28;20483;-64
2023/04/26 08:34:17;;;;;;;6.88;0.93;;;8.30;1.00;;;;;;4974166;28;20034;-64
2023/04/26 08:36:44;;;;;;;7.65;0.60;;;8.60;1.00;;;;;;4957000;28;20143;-64
2023/04/26 08:39:11;;;;;;;11.38;0.57;;;8.90;99.90;;;;;;4974521;28;20077;-64
2023/04/26 08:41:48;;;;;;;5.93;0.45;;;9.20;99.90;;;;;;4970823;28;20307;-65
2023/04/26 08:44:14;;;;;;;5.05;0.30;;;10.00;99.90;;;;;;4969320;28;20085;-64
2023/04/26 08:47:01;;;;;;;4.18;0.35;;;10.10;99.90;;;;;;4973321;28;20132;-64
2023/04/26 08:49:40;;;;;;;4.18;0.30;;;9.30;1.00;;;;;;4956371;28;20077;-65
2023/04/26 08:52:11;;;;;;;2.78;0.43;;;7.60;99.90;;;;;;4955636;28;20158;-65
2023/04/26 08:54:38;;;;;;;3.40;0.40;;;6.90;99.90;;;;;;4957416;28;20042;-65
2023/04/26 08:57:06;;;;;;;3.35;0.28;;;6.20;99.90;;;;;;4975235;28;20084;-65
2023/04/26 08:59:38;;;;;;;6.05;0.40;;;6.00;99.90;;;;;;4982935;28;20417;-64
2023/04/26 09:02:06;;;;;;;6.38;0.47;;;5.90;99.90;;;;;;4960116;28;20061;-65
2023/04/26 09:04:32;;;;;;;4.65;0.40;;;5.70;99.90;;;;;;4954207;28;20046;-65
2023/04/26 09:07:00;;;;;;;2.75;0.38;;;5.70;1.00;;;;;;4957187;28;20112;-64
2023/04/26 09:09:37;;;;;;;4.15;0.40;;;5.90;1.00;;;;;;4971421;28;20135;-64
2023/04/26 09:12:03;;;;;;;4.80;0.30;;;6.10;99.90;;;;;;4973313;28;20046;-64
2023/04/26 09:14:29;;;;;;;4.70;0.32;;;6.30;99.90;;;;;;4972803;28;20050;-64
2023/04/26 09:16:55;;;;;;;4.93;0.50;;;6.50;99.90;;;;;;4989763;28;20665;-65
2023/04/26 09:19:39;;;;;;;4.30;0.30;;;6.70;99.90;;;;;;4963053;28;20050;-64
2023/04/26 09:22:05;;;;;;;3.58;0.40;;;7.00;99.90;;;;;;4963988;28;20439;-65
2023/04/26 09:25:01;;;;;;;5.85;0.38;;;7.40;99.90;;;;;;4971447;28;20085;-64
2023/04/26 09:27:39;;;;;;;6.45;0.50;;;7.70;99.90;;;;;;4947672;28;20050;-64
2023/04/26 09:30:10;;;;;;;4.13;0.40;;;8.20;99.90;;;;;;4987144;28;20058;-64
2023/04/26 09:32:48;;;;;;;2.67;0.30;;;8.20;99.90;;;;;;4972589;28;20448;-64
2023/04/26 09:35:36;;;;;;;5.15;0.60;;;8.60;99.90;;;;;;4960236;28;20078;-65
2023/04/26 09:38:13;;;;;;;6.55;0.38;;;8.80;99.90;;;;;;4973143;28;20050;-64
2023/04/26 09:40:47;;;;;;;5.75;0.65;;;9.10;99.90;;;;;;4955765;28;20567;-64
2023/04/26 09:43:13;;;;;;;;;;;9.30;99.90;;;;;;4978371;28;20073;-64
2023/04/26 09:45:49;;;;;;;7.20;0.60;;;9.20;1.00;;;;;;4996111;28;19957;-64
2023/04/26 09:48:29;;;;;;;6.13;0.68;;;9.20;1.00;;;;;;4980133;28;20066;-64
2023/04/26 09:51:06;;;;;;;3.50;0.40;;;9.00;1.00;;;;;;4962674;28;20073;-64
2023/04/26 09:53:36;;;;;;;7.93;0.70;;;9.30;1.00;;;;;;4964158;28;20370;-64
2023/04/26 09:56:09;;;;;;;3.42;0.30;;;9.50;48.20;;;;;;4949420;28;20065;-64
2023/04/26 09:58:59;;;;;;;8.88;0.50;;;9.30;2.10;;;;;;4961690;28;20532;-64
2023/04/26 10:01:28;;;;;;;5.20;0.40;;;9.60;1.00;;;;;;4971384;28;20337;-65
2023/04/26 10:03:55;;;;;;;6.82;0.47;;;10.20;89.10;;;;;;4961419;28;20089;-64
2023/04/26 10:06:23;;;;;;;4.22;0.40;;;9.80;1.00;;;;;;4960922;28;20049;-64
2023/04/26 10:08:49;;;;;;;6.43;0.70;;;9.10;52.20;;;;;;4963862;28;20235;-64
2023/04/26 10:11:15;;;;;;;3.50;0.40;;;8.80;99.40;;;;;;4963351;28;20046;-63
2023/04/26 10:13:41;;;;;;;3.92;0.30;;;8.70;99.90;;;;;;4995448;28;20053;-63
2023/04/26 10:16:08;;;;;;;4.70;0.30;;;8.80;99.90;;;;;;4981053;28;20069;-64
2023/04/26 10:18:34;;;;;;;4.63;0.50;;;9.70;99.90;;;;;;4961377;28;20041;-64
2023/04/26 10:21:13;;;;;;;5.63;0.40;;;10.40;99.90;;;;;;4961851;28;20113;-64
2023/04/26 10:23:40;;;;;;;6.15;0.40;;;11.40;99.90;;;;;;4987505;28;20432;-63
2023/04/26 10:26:06;;;;;;;7.60;0.60;;;11.90;99.90;;;;;;4989873;28;20038;-64
2023/04/26 10:28:53;;;;;;;2.72;0.30;;;12.10;1.00;;;;;;4965917;28;20077;-63
2023/04/26 10:31:18;;;;;;;5.30;0.57;;;11.60;99.90;;;;;;4969062;28;20073;-63
2023/04/26 10:34:16;;;;;;;6.10;0.52;;;11.50;1.00;;;;;;4961494;28;20498;-63
2023/04/26 10:37:15;;;;;;;5.78;0.40;;;11.10;1.00;;;;;;4972613;28;20048;-63
2023/04/26 10:39:42;;;;;;;5.00;0.40;;;10.90;1.00;;;;;;4978745;28;20533;-63
2023/04/26 10:42:29;;;;;;;4.85;0.40;;;10.30;1.00;;;;;;4961118;28;20056;-63
2023/04/26 10:44:59;;;;;;;7.25;0.70;;;9.90;1.00;;;;;;4967133;28;20045;-64
2023/04/26 10:47:33;;;;;;;11.10;0.68;;;9.80;1.00;;;;;;4973591;28;20165;-64
2023/04/26 10:50:09;;;;;;;5.95;0.60;;;9.80;1.00;;;;;;4957453;28;20467;-64
2023/04/26 10:52:38;;;;;;;5.15;0.50;;;10.00;99.90;;;;;;4977036;28;20089;-64
2023/04/26 10:55:05;;;;;;;7.30;0.52;;;9.90;99.90;;;;;;4958789;28;20050;-64
2023/04/26 10:57:51;;;;;;;4.20;0.40;;;9.90;99.90;;;;;;4960117;28;20477;-64
2023/04/26 11:00:19;;;;;;;5.43;0.47;;;10.90;99.90;;;;;;4968898;28;20049;-64
2023/04/26 11:02:51;;;;;;;5.95;0.40;;;11.80;99.90;;;;;;4983809;28;20176;-64
2023/04/26 11:05:54;;;;;;;4.25;0.40;;;12.30;99.90;;;;;;4975140;28;20350;-64
2023/04/26 11:08:27;;;;;;;5.00;0.47;;;12.20;99.90;;;;;;4992792;28;20143;-63
2023/04/26 11:10:57;;;;;;;3.53;0.30;;;11.50;99.90;;;;;;4957982;28;20500;-63
2023/04/26 11:13:23;;;;;;;6.25;0.50;;;11.20;99.90;;;;;;4976560;28;20133;-63
2023/04/26 11:16:03;;;;;;;3.22;0.30;;;11.50;99.90;;;;;;4971831;28;20046;-63
2023/04/26 11:18:33;;;;;;;4.32;0.40;;;10.60;99.90;;;;;;4975754;28;20551;-63
2023/04/26 11:20:59;;;;;;;5.80;0.40;;;10.30;99.90;;;;;;4944949;28;20041;-64
2023/04/26 11:23:27;;;;;;;5.72;0.40;;;9.90;99.90;;;;;;4988666;28;20363;-63
2023/04/26 11:25:56;;;;;;;3.75;0.40;;;9.40;99.90;;;;;;4971553;28;20057;-64
2023/04/26 11:28:22;;;;;;;5.18;0.63;;;9.30;99.90;;;;;;4988512;28;20085;-63
2023/04/26 11:30:49;;;;;;;3.50;0.40;;;9.30;99.90;;;;;;4970192;28;20204;-64
2023/04/26 11:33:21;;;;;;;4.25;0.55;;;9.10;1.00;;;;;;4958294;28;20494;-63
2023/04/26 11:35:51;;;;;;;4.78;0.30;;;8.80;1.00;;;;;;4991224;28;20037;-64
2023/04/26 11:38:21;;;;;;;3.45;0.40;;;8.60;1.00;;;;;;4976075;28;20388;-63
2023/04/26 11:40:59;;;;;;;4.95;0.43;;;8.60;1.00;;;;;;4973999;28;20081;-63
2023/04/26 11:43:35;;;;;;;4.43;0.47;;;8.60;1.00;;;;;;4973981;28;20030;-64
2023/04/26 11:46:02;;;;;;;3.38;0.40;;;8.60;1.00;;;;;;4971948;28;20421;-63
2023/04/26 11:48:29;;;;;;;6.20;0.82;;;8.70;1.00;;;;;;4989253;28;20038;-63
2023/04/26 11:50:59;;;;;;;4.95;0.40;;;8.70;1.00;;;;;;4972064;28;20078;-63
2023/04/26 11:53:37;;;;;;;4.72;0.70;;;8.70;1.00;;;;;;4991820;28;20041;-63
2023/04/26 11:56:21;;;;;;;6.72;0.68;;;8.80;1.00;;;;;;4983593;28;20048;-63
2023/04/26 11:58:51;;;;;;;3.22;0.50;;;8.90;1.00;;;;;;4956190;28;20038;-63
2023/04/26 12:01:25;;;;;;;3.75;0.47;;;9.00;1.00;;;;;;4946570;28;20726;-63
2023/04/26 12:03:52;;;;;;;7.15;0.70;;;9.00;1.00;;;;;;4948839;28;20300;-63
2023/04/26 12:06:19;;;;;;;5.30;0.43;;;9.30;1.00;;;;;;4957002;28;20052;-64
2023/04/26 12:08:51;;;;;;;3.42;0.40;;;9.50;99.90;;;;;;4940580;28;20050;-63
2023/04/26 12:11:17;;;;;;;2.92;0.30;;;9.50;99.90;;;;;;4955586;28;20034;-63
2023/04/26 12:13:45;;;;;;;2.90;0.43;;;9.50;99.90;;;;;;4973477;28;20276;-63
2023/04/26 12:16:13;;;;;;;2.35;0.30;;;9.40;99.90;;;;;;4950353;28;20367;-63
2023/04/26 12:18:39;;;;;;;2.05;0.40;;;9.30;99.90;;;;;;4944737;28;20262;-63
2023/04/26 12:21:05;;;;;;;3.58;0.32;;;9.10;99.90;;;;;;4939637;28;20038;-63
2023/04/26 12:23:39;;;;;;;3.15;0.30;;;9.20;99.90;;;;;;4958521;28;20468;-63
2023/04/26 12:26:05;;;;;;;3.25;0.30;;;9.10;99.90;;;;;;4988780;28;20045;-64
2023/04/26 12:28:30;;;;;;;2.20;0.30;;;9.10;99.90;;;;;;4956889;28;20080;-63
2023/04/26 12:30:56;;;;;;;2.20;0.30;;;9.50;99.90;;;;;;4976116;28;20615;-63
2023/04/26 12:33:24;;;;;;;5.30;0.50;;;10.00;99.90;;;;;;4970559;28;20046;-63
2023/04/26 12:35:49;;;;;;;4.88;0.40;;;9.80;99.90;;;;;;4973456;28;20053;-64
2023/04/26 12:38:16;;;;;;;4.18;0.40;;;10.00;99.90;;;;;;4956140;28;20042;-63
2023/04/26 12:40:42;;;;;;;4.97;0.30;;;10.10;99.90;;;;;;4957132;28;20041;-63
2023/04/26 12:43:08;;;;;;;5.65;0.40;;;9.60;99.90;;;;;;4955694;28;20088;-63
2023/04/26 12:45:34;;;;;;;3.63;0.30;;;10.00;99.90;;;;;;4971804;28;20053;-65
2023/04/26 12:48:00;;;;;;;4.55;0.30;;;10.20;99.90;;;;;;4963482;28;20316;-63
2023/04/26 12:50:26;;;;;;;5.53;0.40;;;10.40;99.90;;;;;;4955570;28;20046;-63
2023/04/26 12:52:52;;;;;;;5.10;0.40;;;10.80;99.90;;;;;;4956256;28;20043;-63
2023/04/26 12:55:18;;;;;;;5.88;0.45;;;10.60;99.90;;;;;;4956613;28;20483;-63
2023/04/26 12:57:44;;;;;;;6.25;0.43;;;10.80;99.90;;;;;;4939750;28;20504;-63
2023/04/26 13:00:12;;;;;;;4.00;0.30;;;10.90;99.90;;;;;;4974726;28;20050;-64
2023/04/26 13:02:39;;;;;;;4.00;0.30;;;11.20;99.90;;;;;;4967777;28;20597;-64
2023/04/26 13:05:06;;;;;;;5.50;0.32;;;11.40;99.90;;;;;;4955075;28;20270;-64